Archival Weather

Chicago O'Hare International

Chicago, Illinois (KORD)

Report from: Wednesday, January 25, 2023 1:29 AM CST
Current time: Sunday, February 5, 2023 11:41 PM CST

Current weather
Weather history
Weather forecast

Present weatherLight snow
Temperature0.0°C (32.0°F)
Wind chill-1.8°C (28.7°F)
Dew point-2.8°C (27.0°F)
Winds 3 kts (1.5 m/s, 3.5 mph) East-Southeast (110°)
Visibility4 mi. (6.4 km)
Clouds Ceiling: Overcast 1,200 ft. (366 m)
Altimeter29.98 in.Hg (1015 mB)
PrecipitiationTrace
Precip. events Snow began 1:26 AM
Relative humidity81 %
Density altitude-1,824 ft. (-556 m)
Remarks Automated weather observing station with precipitation discriminator
Flight conditions Marginal Visual Meteorological Conditions
Raw dataKORD 250729Z 11003KT 4SM -SN OVC012 00/M03 A2998 RMK AO2 SNB26 P0000 T00001028
An error has occurred. This application may no longer respond until reloaded. Reload 🗙